Time;durP1;ratioP1;P1;durP2;ratioP2;P2;SDS_P1;SDS_P2;PMS_P1;PMS_P2;Temp;Humidity;BMP_temperature;BMP_pressure;BME280_temperature;BME280_humidity;BME280_pressure;Samples;Min_cycle;Max_cycle;Signal;HPM_P1;HPM_P2
2021/03/02 00:00:32;;;;;;;95.03;28.45;;;;;;;2.12;100.00;103029.09;5221777;28;20178;-65
2021/03/02 00:03:05;;;;;;;95.28;29.83;;;;;;;2.07;100.00;103025.75;5222138;28;20124;-65
2021/03/02 00:05:36;;;;;;;89.82;28.35;;;;;;;2.05;100.00;103017.84;5221652;28;20036;-65
2021/03/02 00:08:07;;;;;;;99.25;29.30;;;;;;;2.02;100.00;103033.00;5221654;28;20025;-65
2021/03/02 00:10:39;;;;;;;92.22;29.00;;;;;;;1.97;100.00;103029.66;5221384;28;20493;-65
2021/03/02 00:13:11;;;;;;;86.43;28.38;;;;;;;1.91;100.00;103025.47;5221313;28;20520;-65
2021/03/02 00:15:41;;;;;;;97.05;29.75;;;;;;;1.87;100.00;103033.56;5217351;28;20117;-65
2021/03/02 00:18:13;;;;;;;87.90;28.33;;;;;;;1.80;100.00;103031.13;5216940;28;20536;-64
2021/03/02 00:20:47;;;;;;;99.60;29.38;;;;;;;1.77;100.00;103023.31;5221570;28;20024;-65
2021/03/02 00:23:26;;;;;;;90.47;29.67;;;;;;;1.79;100.00;103033.84;5220762;28;20032;-65
2021/03/02 00:25:58;;;;;;;88.50;28.45;;;;;;;1.79;100.00;103028.56;5221885;28;20423;-65
2021/03/02 00:28:29;;;;;;;84.93;29.13;;;;;;;1.81;100.00;103032.88;5221925;28;20021;-66
2021/03/02 00:31:01;;;;;;;97.88;29.83;;;;;;;1.77;100.00;103035.69;5219813;28;20017;-65
2021/03/02 00:33:34;;;;;;;103.07;29.95;;;;;;;1.84;100.00;103033.69;5208785;28;20082;-65
2021/03/02 00:36:04;;;;;;;103.82;32.83;;;;;;;1.87;100.00;103036.22;5221870;28;20400;-64
2021/03/02 00:38:35;;;;;;;98.43;30.17;;;;;;;1.80;100.00;103035.56;5221768;28;20033;-65
2021/03/02 00:41:06;;;;;;;99.13;30.30;;;;;;;1.74;100.00;103033.16;5221067;28;20557;-65
2021/03/02 00:43:36;;;;;;;101.53;30.45;;;;;;;1.73;100.00;103039.38;5221096;28;20036;-66
2021/03/02 00:46:07;;;;;;;97.85;29.58;;;;;;;1.70;100.00;103031.53;5221475;28;20029;-65
2021/03/02 00:48:37;;;;;;;98.32;31.60;;;;;;;1.69;100.00;103038.59;5221636;28;20025;-65
2021/03/02 00:51:07;;;;;;;102.68;31.55;;;;;;;1.71;100.00;103036.78;5225118;28;20017;-65
2021/03/02 00:53:38;;;;;;;116.88;32.78;;;;;;;1.69;100.00;103035.97;5224457;28;20025;-65
2021/03/02 00:56:09;;;;;;;103.00;29.05;;;;;;;1.68;100.00;103036.03;5224915;28;20393;-65
2021/03/02 00:58:41;;;;;;;102.90;31.25;;;;;;;1.70;100.00;103034.19;5225179;28;20138;-65
2021/03/02 01:01:13;;;;;;;101.05;29.55;;;;;;;1.69;100.00;103033.31;5225493;28;20112;-65
2021/03/02 01:03:43;;;;;;;107.55;31.65;;;;;;;1.65;100.00;103034.34;5224612;28;20025;-65
2021/03/02 01:06:14;;;;;;;104.95;30.88;;;;;;;1.64;100.00;103034.41;5225033;28;20389;-65
2021/03/02 01:08:44;;;;;;;102.38;31.23;;;;;;;1.62;100.00;103037.13;5225425;28;20016;-65
2021/03/02 01:11:15;;;;;;;102.43;31.45;;;;;;;1.61;100.00;103035.38;5224503;28;20013;-65
2021/03/02 01:13:45;;;;;;;95.07;30.17;;;;;;;1.55;100.00;103031.16;5224503;28;20028;-65
2021/03/02 01:16:16;;;;;;;96.75;28.50;;;;;;;1.51;100.00;103034.00;5215532;28;20136;-65
2021/03/02 01:18:47;;;;;;;97.38;29.88;;;;;;;1.45;100.00;103035.03;5221931;28;20527;-65
2021/03/02 01:21:17;;;;;;;98.85;30.33;;;;;;;1.40;100.00;103041.41;5225268;28;20061;-65
2021/03/02 01:23:48;;;;;;;99.45;30.35;;;;;;;1.38;100.00;103032.69;5224283;28;20029;-65
2021/03/02 01:26:18;;;;;;;90.93;25.98;;;;;;;1.34;100.00;103037.22;5224632;28;20087;-65
2021/03/02 01:28:49;;;;;;;83.45;25.80;;;;;;;1.21;100.00;103033.28;5225334;28;20489;-65
2021/03/02 01:31:19;;;;;;;77.82;26.05;;;;;;;1.08;100.00;103027.53;5222551;28;20477;-64
2021/03/02 01:33:50;;;;;;;74.70;25.80;;;;;;;0.94;100.00;103027.97;5216883;28;20037;-65
2021/03/02 01:36:20;;;;;;;85.03;25.63;;;;;;;0.85;100.00;103030.06;5224119;28;20025;-65
2021/03/02 01:38:51;;;;;;;95.97;30.80;;;;;;;0.79;100.00;103031.13;5225225;28;20365;-65
2021/03/02 01:41:21;;;;;;;85.75;27.63;;;;;;;0.78;100.00;103022.34;5224250;28;20049;-65
2021/03/02 01:43:51;;;;;;;89.32;28.00;;;;;;;0.85;100.00;103016.84;5223317;28;20082;-65
2021/03/02 01:46:22;;;;;;;81.28;26.90;;;;;;;0.84;100.00;103021.28;5224165;28;20021;-65
2021/03/02 01:48:52;;;;;;;78.10;24.10;;;;;;;0.76;100.00;103012.75;5224289;28;20021;-65
2021/03/02 01:51:23;;;;;;;90.30;27.80;;;;;;;0.68;100.00;103013.00;5224196;28;20017;-65
2021/03/02 01:53:53;;;;;;;95.28;27.27;;;;;;;0.67;100.00;103010.41;5223903;28;20028;-65
2021/03/02 01:56:24;;;;;;;87.93;28.17;;;;;;;0.66;100.00;103017.47;5223643;28;20531;-65
2021/03/02 01:58:55;;;;;;;93.57;28.98;;;;;;;0.70;100.00;103019.09;5224202;28;20079;-65
2021/03/02 02:01:25;;;;;;;93.35;29.92;;;;;;;0.70;100.00;103012.94;5223850;28;20036;-65
2021/03/02 02:04:02;;;;;;;109.03;30.38;;;;;;;0.71;100.00;103014.69;5223735;28;20199;-64
2021/03/02 02:06:38;;;;;;;104.03;30.95;;;;;;;0.69;100.00;103005.91;5223451;28;20119;-64
2021/03/02 02:09:21;;;;;;;116.63;31.50;;;;;;;0.69;100.00;103003.28;5212308;28;20533;-65
2021/03/02 02:12:04;;;;;;;103.38;29.15;;;;;;;0.63;100.00;103008.78;5224166;28;20206;-65
2021/03/02 02:14:51;;;;;;;106.75;30.08;;;;;;;0.61;100.00;103006.19;5223298;28;20100;-65
2021/03/02 02:17:30;;;;;;;97.70;29.83;;;;;;;0.60;100.00;103006.22;5213671;28;20028;-65
2021/03/02 02:20:06;;;;;;;91.40;27.95;;;;;;;0.55;100.00;102998.44;5223631;28;20055;-65
2021/03/02 02:23:03;;;;;;;86.53;27.20;;;;;;;0.46;100.00;102999.63;5223489;28;20033;-64
2021/03/02 02:25:38;;;;;;;100.63;28.92;;;;;;;0.41;100.00;103001.53;5212003;28;20025;-65
2021/03/02 02:28:10;;;;;;;95.93;32.53;;;;;;;0.39;100.00;102997.19;5223778;28;20104;-65
2021/03/02 02:30:43;;;;;;;106.65;32.30;;;;;;;0.38;100.00;102995.47;5223620;28;20021;-65
2021/03/02 02:33:15;;;;;;;99.60;30.05;;;;;;;0.42;100.00;102994.47;5207786;28;20021;-65
2021/03/02 02:35:50;;;;;;;97.70;29.73;;;;;;;0.42;100.00;102991.84;5223579;28;20021;-65
2021/03/02 02:38:22;;;;;;;92.95;28.40;;;;;;;0.35;100.00;102990.28;5223738;28;20032;-65
2021/03/02 02:40:54;;;;;;;93.72;27.63;;;;;;;0.27;100.00;102981.75;5223165;28;20028;-65
2021/03/02 02:43:26;;;;;;;101.07;29.90;;;;;;;0.23;100.00;102987.13;5222979;28;20043;-65
2021/03/02 02:45:57;;;;;;;95.25;28.60;;;;;;;0.24;100.00;102985.34;5222946;28;20017;-65
2021/03/02 02:48:30;;;;;;;109.03;29.25;;;;;;;0.23;100.00;102984.47;5223160;28;20616;-65
2021/03/02 02:51:01;;;;;;;100.18;29.67;;;;;;;0.23;100.00;102988.91;5223139;28;20017;-65
2021/03/02 02:53:34;;;;;;;98.28;29.13;;;;;;;0.29;100.00;102982.56;5222883;28;20057;-65
2021/03/02 02:56:07;;;;;;;104.25;29.15;;;;;;;0.30;100.00;102984.28;5222736;28;20089;-65
2021/03/02 02:58:51;;;;;;;92.00;27.80;;;;;;;0.27;100.00;102976.47;5222582;28;20020;-65
2021/03/02 03:01:23;;;;;;;102.68;30.30;;;;;;;0.22;100.00;102980.13;5223145;28;20028;-65
2021/03/02 03:03:58;;;;;;;99.43;30.98;;;;;;;0.21;100.00;102981.03;5222379;28;20485;-64
2021/03/02 03:06:31;;;;;;;81.72;25.77;;;;;;;0.22;100.00;102989.81;5222773;28;20024;-65
2021/03/02 03:09:05;;;;;;;90.20;27.83;;;;;;;0.18;100.00;102981.13;5222948;28;20553;-65
2021/03/02 03:11:41;;;;;;;107.10;27.85;;;;;;;0.17;100.00;102989.09;5222307;28;20510;-65
2021/03/02 03:14:14;;;;;;;90.43;25.23;;;;;;;0.17;100.00;102994.38;5222130;28;20549;-64
2021/03/02 03:16:45;;;;;;;91.43;26.23;;;;;;;0.16;100.00;102984.72;5211638;28;20036;-64
2021/03/02 03:19:22;;;;;;;88.50;27.13;;;;;;;0.12;100.00;102988.38;5222525;28;20025;-65
2021/03/02 03:21:53;;;;;;;91.03;26.58;;;;;;;0.08;100.00;102984.94;5220376;28;20048;-65
2021/03/02 03:24:24;;;;;;;78.68;26.92;;;;;;;0.04;100.00;102991.22;5219413;28;20075;-65
2021/03/02 03:26:54;;;;;;;95.43;27.88;;;;;;;0.01;100.00;102986.06;5221905;28;20393;-65
2021/03/02 03:29:25;;;;;;;83.82;25.33;;;;;;;-0.02;100.00;102981.72;5222277;28;20542;-65
2021/03/02 03:31:58;;;;;;;91.05;26.67;;;;;;;-0.07;100.00;102977.50;5212330;28;20037;-64
2021/03/02 03:34:29;;;;;;;107.90;27.63;;;;;;;-0.13;100.00;102975.03;5216497;28;20024;-65
2021/03/02 03:37:00;;;;;;;82.43;24.33;;;;;;;-0.17;100.00;102978.69;5237907;28;20021;-64
2021/03/02 03:39:31;;;;;;;89.45;25.75;;;;;;;-0.17;100.00;102981.31;5222073;28;20025;-65
2021/03/02 03:42:01;;;;;;;88.78;28.10;;;;;;;-0.20;100.00;102984.03;5222453;28;20032;-65
2021/03/02 03:44:32;;;;;;;88.50;27.63;;;;;;;-0.23;100.00;102982.38;5220946;28;20478;-64
2021/03/02 03:47:04;;;;;;;90.70;27.38;;;;;;;-0.23;100.00;102984.13;5222141;28;20436;-65
2021/03/02 03:49:35;;;;;;;103.30;29.05;;;;;;;-0.20;100.00;102984.03;5222097;28;20029;-65
2021/03/02 03:52:08;;;;;;;85.78;24.70;;;;;;;-0.17;100.00;102987.44;5222068;28;20025;-65
2021/03/02 03:54:39;;;;;;;86.15;27.63;;;;;;;-0.21;100.00;102992.84;5221423;28;20519;-65
2021/03/02 03:57:11;;;;;;;72.95;25.30;;;;;;;-0.28;100.00;102982.50;5222080;28;20025;-64
2021/03/02 03:59:43;;;;;;;84.07;26.65;;;;;;;-0.29;100.00;102986.03;5222173;28;20025;-65
2021/03/02 04:02:14;;;;;;;93.82;29.17;;;;;;;-0.28;100.00;102986.91;5221753;28;20025;-65
2021/03/02 04:04:46;;;;;;;102.22;30.17;;;;;;;-0.26;100.00;102985.06;5221266;28;20025;-65
2021/03/02 04:07:17;;;;;;;98.43;27.77;;;;;;;-0.21;100.00;102984.94;5221792;28;20021;-65
2021/03/02 04:09:48;;;;;;;86.97;28.10;;;;;;;-0.20;100.00;102978.75;5221451;28;20029;-64
2021/03/02 04:12:19;;;;;;;96.53;29.90;;;;;;;-0.20;100.00;102981.38;5221782;28;20154;-65
2021/03/02 04:14:49;;;;;;;95.65;29.05;;;;;;;-0.21;100.00;102980.53;5221967;28;20496;-64
2021/03/02 04:17:19;;;;;;;92.50;27.60;;;;;;;-0.20;100.00;102979.66;5221936;28;20385;-65
2021/03/02 04:19:50;;;;;;;93.57;28.33;;;;;;;-0.21;100.00;102980.53;5221591;28;20058;-63
2021/03/02 04:22:20;;;;;;;92.60;26.58;;;;;;;-0.22;100.00;102983.22;5237039;28;20087;-64
2021/03/02 04:24:51;;;;;;;91.80;26.95;;;;;;;-0.26;100.00;102975.38;5224916;28;20505;-64
2021/03/02 04:27:21;;;;;;;101.70;31.17;;;;;;;-0.30;100.00;102981.69;5226085;28;20037;-65
2021/03/02 04:29:52;;;;;;;105.75;32.58;;;;;;;-0.29;100.00;102972.84;5226238;28;20025;-65
2021/03/02 04:32:22;;;;;;;100.60;29.63;;;;;;;-0.28;100.00;102981.63;5212148;28;20048;-64
2021/03/02 04:34:53;;;;;;;98.38;28.88;;;;;;;-0.26;100.00;102979.78;5223416;28;20049;-63
2021/03/02 04:37:23;;;;;;;99.13;30.40;;;;;;;-0.24;100.00;102978.00;5225694;28;20033;-65
2021/03/02 04:39:54;;;;;;;115.45;30.73;;;;;;;-0.27;100.00;102978.94;5225708;28;20083;-65
2021/03/02 04:42:24;;;;;;;97.15;28.98;;;;;;;-0.32;100.00;102975.56;5225224;28;20252;-65
2021/03/02 04:44:55;;;;;;;94.18;28.58;;;;;;;-0.32;100.00;102978.22;5225577;28;20399;-64
2021/03/02 04:47:25;;;;;;;83.60;27.58;;;;;;;-0.29;100.00;102979.91;5225517;28;20051;-65
2021/03/02 04:49:56;;;;;;;100.95;29.88;;;;;;;-0.30;100.00;102981.69;5226057;28;20035;-64
2021/03/02 04:52:26;;;;;;;101.18;29.83;;;;;;;-0.35;100.00;102970.41;5225329;28;20100;-65
2021/03/02 04:54:57;;;;;;;96.13;29.55;;;;;;;-0.40;100.00;102969.66;5225098;28;20033;-64
2021/03/02 04:57:28;;;;;;;93.75;28.05;;;;;;;-0.47;100.00;102967.22;5224785;28;20484;-65
2021/03/02 04:59:58;;;;;;;89.13;28.35;;;;;;;-0.48;100.00;102969.00;5225992;28;20485;-65
2021/03/02 05:02:29;;;;;;;107.55;32.55;;;;;;;-0.47;100.00;102970.72;5225189;28;20108;-65
2021/03/02 05:04:59;;;;;;;100.22;31.92;;;;;;;-0.43;100.00;102958.34;5225314;28;20380;-65
2021/03/02 05:07:30;;;;;;;101.78;33.53;;;;;;;-0.41;100.00;102961.78;5225053;28;20453;-65
2021/03/02 05:10:01;;;;;;;101.60;31.33;;;;;;;-0.42;100.00;102971.47;5224603;28;20367;-65
2021/03/02 05:12:31;;;;;;;105.07;30.67;;;;;;;-0.40;100.00;102964.41;5224893;28;20028;-64
2021/03/02 05:15:03;;;;;;;99.53;31.02;;;;;;;-0.42;100.00;102962.69;5225071;28;20078;-65
2021/03/02 05:17:34;;;;;;;101.70;32.10;;;;;;;-0.44;100.00;102964.53;5214911;28;20033;-65
2021/03/02 05:20:05;;;;;;;87.47;28.80;;;;;;;-0.45;100.00;102962.78;5225315;28;20499;-65
2021/03/02 05:22:36;;;;;;;98.63;29.70;;;;;;;-0.44;100.00;102957.47;5222911;28;20036;-65
2021/03/02 05:25:07;;;;;;;93.50;31.08;;;;;;;-0.42;100.00;102960.91;5224549;28;20029;-65
2021/03/02 05:27:37;;;;;;;93.32;30.20;;;;;;;-0.43;100.00;102964.47;5224860;28;20036;-64
2021/03/02 05:30:08;;;;;;;98.28;29.63;;;;;;;-0.44;100.00;102962.75;5240617;28;20029;-65
2021/03/02 05:32:39;;;;;;;101.68;31.45;;;;;;;-0.46;100.00;102963.69;5224810;28;20116;-65
2021/03/02 05:35:10;;;;;;;106.85;30.95;;;;;;;-0.55;100.00;102963.06;5222992;28;20453;-65
2021/03/02 05:37:40;;;;;;;99.70;29.95;;;;;;;-0.61;100.00;102954.44;5224425;28;20033;-65
2021/03/02 05:40:12;;;;;;;85.15;27.92;;;;;;;-0.64;100.00;102962.44;5224823;28;20082;-65
2021/03/02 05:42:42;;;;;;;92.05;27.15;;;;;;;-0.70;100.00;102965.22;5224043;28;20202;-63
2021/03/02 05:45:14;;;;;;;79.72;27.65;;;;;;;-0.72;100.00;102967.06;5224334;28;20100;-65
2021/03/02 05:47:45;;;;;;;79.00;27.48;;;;;;;-0.74;100.00;102963.59;5224553;28;20051;-64
2021/03/02 05:50:16;;;;;;;82.00;28.42;;;;;;;-0.77;100.00;102961.91;5224874;28;20551;-64
2021/03/02 05:52:47;;;;;;;81.85;26.42;;;;;;;-0.79;100.00;102966.38;5224009;28;20029;-65
2021/03/02 05:55:18;;;;;;;76.03;24.48;;;;;;;-0.83;100.00;102965.56;5223002;28;20025;-64
2021/03/02 05:57:49;;;;;;;68.78;22.88;;;;;;;-0.85;100.00;102966.53;5223844;28;20424;-64
2021/03/02 06:00:20;;;;;;;89.22;26.88;;;;;;;-0.89;100.00;102959.59;5224105;28;20032;-64
2021/03/02 06:02:50;;;;;;;84.22;27.70;;;;;;;-0.92;100.00;102963.19;5222924;28;20421;-65
2021/03/02 06:05:21;;;;;;;89.03;29.65;;;;;;;-0.86;100.00;102964.78;5224274;28;20049;-65
2021/03/02 06:07:52;;;;;;;92.07;29.25;;;;;;;-0.84;100.00;102958.56;5224225;28;20067;-65
2021/03/02 06:10:29;;;;;;;89.28;29.27;;;;;;;-0.84;100.00;102961.22;5223409;28;20078;-65
2021/03/02 06:13:00;;;;;;;107.15;30.60;;;;;;;-0.84;100.00;102961.22;5223548;28;20501;-65
2021/03/02 06:15:30;;;;;;;99.85;32.55;;;;;;;-0.81;100.00;102966.38;5220882;28;20051;-65
2021/03/02 06:18:11;;;;;;;96.15;29.58;;;;;;;-0.81;100.00;102962.88;5217384;28;20025;-64
2021/03/02 06:20:43;;;;;;;87.07;28.63;;;;;;;-0.81;100.00;102965.53;5223806;28;20039;-65
2021/03/02 06:23:26;;;;;;;91.65;29.00;;;;;;;-0.79;100.00;102972.50;5222816;28;20017;-64
2021/03/02 06:26:15;;;;;;;91.07;28.48;;;;;;;-0.85;100.00;102975.31;5224091;28;20119;-65
2021/03/02 06:28:45;;;;;;;97.07;28.08;;;;;;;-0.92;100.00;102968.44;5224025;28;20021;-64
2021/03/02 06:31:31;;;;;;;90.82;27.77;;;;;;;-0.96;100.00;102968.56;5218833;28;20032;-65
2021/03/02 06:34:04;;;;;;;96.75;28.60;;;;;;;-0.98;100.00;102967.75;5222288;28;20048;-65
2021/03/02 06:36:36;;;;;;;86.13;28.20;;;;;;;-0.94;100.00;102972.91;5223525;28;20079;-64
2021/03/02 06:39:28;;;;;;;82.00;28.10;;;;;;;-0.87;100.00;102971.81;5223462;28;20105;-64
2021/03/02 06:42:10;;;;;;;81.13;26.23;;;;;;;-0.80;100.00;102976.03;5223519;28;20028;-65
2021/03/02 06:44:44;;;;;;;102.22;28.42;;;;;;;-0.78;100.00;102976.00;5222676;28;20036;-65
2021/03/02 06:47:30;;;;;;;88.03;28.60;;;;;;;-0.75;100.00;102980.31;5222273;28;20032;-65
2021/03/02 06:50:04;;;;;;;79.10;27.00;;;;;;;-0.69;100.00;102983.66;5222625;28;20062;-67
2021/03/02 06:52:37;;;;;;;81.65;27.00;;;;;;;-0.64;100.00;102987.03;5223267;28;20368;-67
2021/03/02 06:55:14;;;;;;;82.50;27.60;;;;;;;-0.56;100.00;102990.31;5222640;28;20477;-67
2021/03/02 06:57:46;;;;;;;92.00;30.98;;;;;;;-0.47;100.00;102983.91;5222890;28;20489;-67
2021/03/02 07:00:30;;;;;;;94.35;28.77;;;;;;;-0.38;100.00;102978.38;5222717;28;20028;-67
2021/03/02 07:03:01;;;;;;;83.28;27.48;;;;;;;-0.32;100.00;102988.75;5222858;28;20044;-67
2021/03/02 07:05:31;;;;;;;96.47;29.38;;;;;;;-0.27;100.00;102986.84;5222891;28;20025;-67
2021/03/02 07:08:04;;;;;;;86.43;28.45;;;;;;;-0.17;100.00;102994.50;5223128;28;20021;-67
2021/03/02 07:10:34;;;;;;;88.40;27.63;;;;;;;-0.08;100.00;102991.59;5222389;28;20052;-67
2021/03/02 07:13:06;;;;;;;106.30;30.25;;;;;;;0.02;100.00;102984.28;5221734;28;20037;-67
2021/03/02 07:15:41;;;;;;;87.32;28.55;;;;;;;0.13;100.00;102987.44;5222041;28;20035;-67
2021/03/02 07:18:15;;;;;;;77.20;27.83;;;;;;;0.22;100.00;102980.13;5223035;28;20485;-67
2021/03/02 07:20:50;;;;;;;96.68;29.77;;;;;;;0.33;100.00;102989.47;5222851;28;20036;-67
2021/03/02 07:23:22;;;;;;;88.72;29.55;;;;;;;0.45;100.00;102986.44;5221823;28;20027;-66
2021/03/02 07:25:55;;;;;;;80.80;27.60;;;;;;;0.57;100.00;102991.34;5222617;28;20013;-67
2021/03/02 07:28:30;;;;;;;82.10;28.23;;;;;;;0.68;100.00;102988.34;5222342;28;20036;-67
2021/03/02 07:31:01;;;;;;;;;;;;;;;0.81;100.00;102986.19;5220778;28;20017;-66
2021/03/02 07:33:32;;;;;;;79.50;27.60;;;;;;;0.91;100.00;102993.75;5209135;28;19975;-67
2021/03/02 07:36:03;;;;;;;79.97;27.13;;;;;;;1.00;100.00;102990.81;5222501;28;20040;-68
2021/03/02 07:38:33;;;;;;;88.18;29.25;;;;;;;1.09;100.00;102994.03;5222546;28;20029;-68
2021/03/02 07:41:04;;;;;;;77.03;27.52;;;;;;;1.20;100.00;102994.50;5222312;28;20021;-68
2021/03/02 07:43:36;;;;;;;80.43;28.23;;;;;;;1.28;100.00;102995.97;5221652;28;20052;-67
2021/03/02 07:46:33;;;;;;;78.95;27.40;;;;;;;1.41;100.00;102998.22;5221802;28;20017;-67
2021/03/02 07:49:22;;;;;;;80.07;27.42;;;;;;;1.53;100.00;103000.41;5222098;28;20037;-68
2021/03/02 07:51:56;;;;;;;90.55;29.25;;;;;;;1.66;100.00;102995.53;5222647;28;20846;-68
2021/03/02 07:54:29;;;;;;;76.93;26.80;;;;;;;1.78;100.00;102990.63;5221256;28;20512;-68
2021/03/02 07:57:14;;;;;;;80.45;27.88;;;;;;;1.93;100.00;103001.56;5222027;28;20028;-68
2021/03/02 07:59:45;;;;;;;;;;;;;;;2.07;100.00;103008.06;5222436;28;20044;-67
2021/03/02 08:02:18;;;;;;;83.18;26.95;;;;;;;2.20;100.00;102995.22;5221929;28;20432;-67
2021/03/02 08:04:50;;;;;;;79.70;28.48;;;;;;;2.28;100.00;102993.13;5221434;28;20428;-67
2021/03/02 08:07:22;;;;;;;76.60;28.30;;;;;;;2.40;100.00;102997.06;5221448;28;20037;-68
2021/03/02 08:09:54;;;;;;;78.30;27.35;;;;;;;2.54;100.00;103001.84;5222199;28;20021;-68
2021/03/02 08:12:33;;;;;;;72.40;26.02;;;;;;;2.63;100.00;103006.75;5208643;28;20032;-67
2021/03/02 08:15:21;;;;;;;77.88;26.58;;;;;;;2.77;100.00;103008.84;5221560;28;20082;-68
2021/03/02 08:18:29;;;;;;;76.10;26.25;;;;;;;2.90;100.00;103004.75;5213264;28;20062;-66
2021/03/02 08:21:07;;;;;;;75.55;25.85;;;;;;;3.03;100.00;103011.28;5222411;28;20025;-68
2021/03/02 08:23:55;;;;;;;75.47;25.95;;;;;;;3.21;100.00;103006.97;5221227;28;20028;-68
2021/03/02 08:26:34;;;;;;;76.38;25.52;;;;;;;3.40;100.00;103011.47;5221531;28;20024;-68
2021/03/02 08:29:06;;;;;;;63.50;23.85;;;;;;;3.53;100.00;103012.69;5221985;28;20509;-68
2021/03/02 08:31:39;;;;;;;61.10;23.50;;;;;;;3.63;100.00;103016.66;5220678;28;20609;-68
2021/03/02 08:34:12;;;;;;;60.15;23.45;;;;;;;3.84;100.00;103022.78;5213441;28;20028;-66
2021/03/02 08:36:48;;;;;;;52.97;21.95;;;;;;;3.98;100.00;103017.72;5218381;28;20029;-67
2021/03/02 08:39:20;;;;;;;55.65;21.23;;;;;;;4.14;100.00;103009.88;5214047;28;20025;-68
2021/03/02 08:41:51;;;;;;;53.28;21.80;;;;;;;4.29;100.00;103011.81;5220269;28;20025;-68
2021/03/02 08:44:23;;;;;;;54.42;20.08;;;;;;;4.46;100.00;103020.78;5219509;28;20033;-68
2021/03/02 08:46:56;;;;;;;56.60;21.33;;;;;;;4.69;100.00;103020.53;5219981;28;20485;-68
2021/03/02 08:49:27;;;;;;;50.28;19.85;;;;;;;4.82;100.00;103013.69;5220177;28;20029;-68
2021/03/02 08:51:59;;;;;;;52.75;20.98;;;;;;;5.01;100.00;103016.25;5220324;28;20013;-68
2021/03/02 08:54:29;;;;;;;46.70;19.35;;;;;;;5.17;100.00;103022.56;5219344;28;20474;-68
2021/03/02 08:57:03;;;;;;;49.60;19.73;;;;;;;5.36;100.00;103026.91;5219746;28;20025;-66
2021/03/02 08:59:34;;;;;;;47.00;19.02;;;;;;;5.49;100.00;103025.34;5219594;28;20392;-66
2021/03/02 09:02:04;;;;;;;55.17;20.77;;;;;;;5.66;100.00;103025.31;5219741;28;20032;-66
2021/03/02 09:04:35;;;;;;;43.72;19.08;;;;;;;5.87;100.00;103027.75;5219664;28;20029;-66
2021/03/02 09:07:05;;;;;;;51.13;19.50;;;;;;;6.11;100.00;103022.94;5219791;28;20174;-66
2021/03/02 09:09:37;;;;;;;38.05;17.90;;;;;;;6.25;100.00;103028.38;5219260;28;20029;-65
2021/03/02 09:12:09;;;;;;;42.80;18.20;;;;;;;6.38;100.00;103018.75;5223176;28;20048;-65
2021/03/02 09:14:41;;;;;;;43.15;17.15;;;;;;;6.58;100.00;103019.44;5223223;28;20035;-66
2021/03/02 09:17:11;;;;;;;43.95;16.35;;;;;;;6.74;100.00;103020.28;5213184;28;20021;-66
2021/03/02 09:19:42;;;;;;;35.67;15.75;;;;;;;6.86;100.00;103016.03;5223220;28;20033;-66
2021/03/02 09:22:14;;;;;;;39.05;15.90;;;;;;;7.10;100.00;103024.41;5223385;28;20028;-65
2021/03/02 09:24:47;;;;;;;37.88;16.67;;;;;;;7.23;100.00;103017.41;5222796;28;20116;-66
2021/03/02 09:27:19;;;;;;;38.15;16.38;;;;;;;7.33;100.00;103023.03;5223053;28;20033;-66
2021/03/02 09:29:52;;;;;;;36.42;15.52;;;;;;;7.52;100.00;103021.81;5223361;28;20063;-66
2021/03/02 09:32:25;;;;;;;39.42;15.73;;;;;;;7.65;100.00;103026.44;5215823;28;20424;-66
2021/03/02 09:35:00;;;;;;;35.45;16.35;;;;;;;7.82;100.00;103018.22;5222694;28;20040;-65
2021/03/02 09:37:31;;;;;;;32.03;15.10;;;;;;;7.97;100.00;103022.63;5222973;28;20511;-66
2021/03/02 09:40:04;;;;;;;43.13;16.30;;;;;;;8.10;100.00;103025.38;5223465;28;20033;-67
2021/03/02 09:42:37;;;;;;;36.35;16.58;;;;;;;8.29;100.00;103019.72;5223151;28;20029;-66
2021/03/02 09:45:16;;;;;;;39.00;16.48;;;;;;;8.44;100.00;103017.91;5222874;28;20420;-66
2021/03/02 09:47:56;;;;;;;37.28;15.90;;;;;;;8.61;100.00;103019.47;5223276;28;20104;-66
2021/03/02 09:50:35;;;;;;;38.45;15.52;;;;;;;8.68;100.00;103026.13;5223261;28;20123;-65
2021/03/02 09:53:15;;;;;;;34.00;15.55;;;;;;;8.84;100.00;103026.00;5222623;28;20079;-66
2021/03/02 09:55:47;;;;;;;39.08;16.65;;;;;;;9.07;100.00;103025.31;5222553;28;20079;-65
2021/03/02 09:58:19;;;;;;;39.28;16.35;;;;;;;9.18;100.00;103027.25;5222473;28;20029;-66
2021/03/02 10:00:55;;;;;;;34.03;15.75;;;;;;;9.37;100.00;103025.03;5222738;28;20079;-64
2021/03/02 10:03:34;;;;;;;35.15;16.15;;;;;;;9.43;100.00;103027.28;5223170;28;20393;-66
2021/03/02 10:06:06;;;;;;;30.48;14.25;;;;;;;9.56;100.00;103019.28;5222460;28;20032;-66
2021/03/02 10:08:39;;;;;;;34.40;14.73;;;;;;;9.83;100.00;103016.47;5222876;28;20031;-66
2021/03/02 10:11:10;;;;;;;38.13;14.50;;;;;;;9.93;100.00;103019.34;5222630;28;20017;-66
2021/03/02 10:13:50;;;;;;;34.63;14.07;;;;;;;9.95;100.00;103018.28;5222396;28;20079;-66
2021/03/02 10:16:26;;;;;;;39.00;14.68;;;;;;;10.12;100.00;103017.06;5222299;28;20035;-66
2021/03/02 10:19:14;;;;;;;27.65;12.55;;;;;;;10.30;100.00;103021.16;5222181;28;20497;-66
2021/03/02 10:21:53;;;;;;;25.55;12.05;;;;;;;10.52;100.00;103008.84;5222110;28;20036;-65
2021/03/02 10:24:27;;;;;;;32.70;12.75;;;;;;;10.69;100.00;103007.56;5221854;28;20444;-66
2021/03/02 10:26:59;;;;;;;30.80;13.45;;;;;;;10.84;100.00;103004.63;5222842;28;20055;-66
2021/03/02 10:29:31;;;;;;;28.73;13.90;;;;;;;11.08;100.00;103011.78;5222133;28;20032;-65
2021/03/02 10:32:02;;;;;;;28.90;12.18;;;;;;;11.13;100.00;103010.44;5217616;28;20032;-66
2021/03/02 10:34:35;;;;;;;28.83;12.57;;;;;;;11.25;100.00;103005.97;5217954;28;20191;-66
2021/03/02 10:37:07;;;;;;;28.65;13.25;;;;;;;11.37;100.00;103010.41;5222036;28;20159;-66
2021/03/02 10:39:40;;;;;;;30.10;13.25;;;;;;;11.57;100.00;103008.84;5222088;28;20127;-66
2021/03/02 10:42:11;;;;;;;35.03;14.48;;;;;;;11.55;100.00;103008.13;5222263;28;20036;-66
2021/03/02 10:44:41;;;;;;;28.60;13.23;;;;;;;11.70;100.00;103003.38;5220928;28;20508;-66
2021/03/02 10:47:12;;;;;;;26.92;12.40;;;;;;;11.96;100.00;103001.31;5222361;28;20025;-66
2021/03/02 10:49:43;;;;;;;24.60;11.95;;;;;;;12.03;100.00;102999.84;5222356;28;20127;-67
2021/03/02 10:52:14;;;;;;;25.83;11.35;;;;;;;12.22;100.00;102993.84;5221081;28;20029;-66
2021/03/02 10:54:44;;;;;;;28.05;11.60;;;;;;;12.29;100.00;102995.03;5220289;28;20393;-66
2021/03/02 10:57:15;;;;;;;24.85;11.57;;;;;;;12.40;100.00;102989.66;5219802;28;20031;-66
2021/03/02 10:59:45;;;;;;;24.92;10.40;;;;;;;12.70;94.88;102990.75;5221647;28;20409;-67
2021/03/02 11:02:16;;;;;;;28.20;12.63;;;;;;;12.75;96.62;102984.97;5220003;28;20029;-67
2021/03/02 11:04:46;;;;;;;23.27;11.13;;;;;;;12.85;90.59;102981.41;5220859;28;20478;-67
2021/03/02 11:07:17;;;;;;;28.40;11.95;;;;;;;13.00;88.94;102984.63;5220781;28;20032;-67
2021/03/02 11:09:49;;;;;;;26.42;12.20;;;;;;;13.01;82.12;102986.34;5220629;28;20124;-67
2021/03/02 11:12:20;;;;;;;32.03;13.00;;;;;;;13.11;86.73;102981.88;5220308;28;20028;-67
2021/03/02 11:14:50;;;;;;;28.17;11.93;;;;;;;13.19;89.78;102989.31;5220106;28;20052;-67
2021/03/02 11:17:21;;;;;;;27.15;11.88;;;;;;;13.32;75.49;102989.16;5210460;28;20401;-66
2021/03/02 11:19:51;;;;;;;26.20;10.88;;;;;;;13.32;85.92;102984.59;5221427;28;20544;-67
2021/03/02 11:22:22;;;;;;;23.60;11.25;;;;;;;13.57;92.09;102983.34;5220421;28;20048;-67
2021/03/02 11:24:52;;;;;;;26.23;11.65;;;;;;;13.76;77.86;102974.50;5235218;28;20505;-67
2021/03/02 11:27:23;;;;;;;29.95;11.75;;;;;;;13.89;66.77;102980.47;5220652;28;20025;-66
2021/03/02 11:29:54;;;;;;;27.48;10.77;;;;;;;13.90;71.61;102973.25;5236373;28;20505;-67